Time;durP1;ratioP1;P1;durP2;ratioP2;P2;SDS_P1;SDS_P2;PMS_P1;PMS_P2;Temp;Humidity;BMP_temperature;BMP_pressure;BME280_temperature;BME280_humidity;BME280_pressure;Samples;Min_cycle;Max_cycle;Signal;HPM_P1;HPM_P2
2023/03/07 00:00:50;;;;;;;21.30;13.87;;;;;;;;;;5050734;28;20699;-75
2023/03/07 00:03:19;;;;;;;21.77;13.93;;;;;;;;;;5050638;28;20205;-75
2023/03/07 00:05:45;;;;;;;23.10;14.67;;;;;;;;;;5049519;28;20204;-74
2023/03/07 00:08:11;;;;;;;22.27;15.00;;;;;;;;;;5050044;28;20232;-75
2023/03/07 00:10:38;;;;;;;25.20;15.13;;;;;;;;;;5050269;28;20209;-75
2023/03/07 00:13:04;;;;;;;23.10;15.07;;;;;;;;;;5048904;28;20275;-75
2023/03/07 00:15:30;;;;;;;23.33;14.37;;;;;;;;;;5048194;28;20336;-75
2023/03/07 00:17:57;;;;;;;22.87;15.37;;;;;;;;;;5055066;28;20215;-76
2023/03/07 00:20:23;;;;;;;22.80;14.50;;;;;;;;;;5045683;28;20197;-75
2023/03/07 00:22:49;;;;;;;24.60;14.67;;;;;;;;;;5045266;28;20209;-75
2023/03/07 00:25:15;;;;;;;23.93;15.47;;;;;;;;;;5046708;28;20182;-75
2023/03/07 00:27:42;;;;;;;32.13;17.73;;;;;;;;;;5049484;28;20575;-75
2023/03/07 00:30:11;;;;;;;26.07;16.77;;;;;;;;;;5048265;28;20604;-74
2023/03/07 00:32:37;;;;;;;26.03;15.87;;;;;;;;;;5047962;28;20733;-75
2023/03/07 00:35:03;;;;;;;25.53;16.40;;;;;;;;;;5049644;28;20186;-75
2023/03/07 00:37:29;;;;;;;24.40;15.40;;;;;;;;;;5048110;28;20669;-75
2023/03/07 00:39:55;;;;;;;27.13;16.00;;;;;;;;;;5049034;28;20641;-75
2023/03/07 00:42:22;;;;;;;23.93;15.47;;;;;;;;;;5047063;28;20197;-76
2023/03/07 00:44:48;;;;;;;26.50;16.50;;;;;;;;;;5049192;28;20562;-75
2023/03/07 00:47:14;;;;;;;27.97;17.30;;;;;;;;;;5032525;28;20185;-75
2023/03/07 00:49:40;;;;;;;25.83;15.33;;;;;;;;;;5048263;28;20201;-76
2023/03/07 00:52:07;;;;;;;25.23;15.83;;;;;;;;;;5049361;28;20271;-75
2023/03/07 00:54:35;;;;;;;23.53;14.77;;;;;;;;;;5030040;28;20458;-75
2023/03/07 00:57:01;;;;;;;25.23;16.67;;;;;;;;;;5048514;28;20292;-75
2023/03/07 00:59:27;;;;;;;24.47;15.47;;;;;;;;;;5048517;28;20368;-76
2023/03/07 01:01:53;;;;;;;24.50;16.70;;;;;;;;;;5048602;28;20206;-76
2023/03/07 01:04:20;;;;;;;27.47;17.43;;;;;;;;;;5031212;28;20208;-75
2023/03/07 01:06:46;;;;;;;28.43;16.73;;;;;;;;;;5045403;28;20179;-75
2023/03/07 01:09:12;;;;;;;24.93;15.87;;;;;;;;;;5054846;28;20181;-76
2023/03/07 01:11:38;;;;;;;26.43;16.77;;;;;;;;;;5051510;28;20182;-76
2023/03/07 01:14:05;;;;;;;28.30;16.70;;;;;;;;;;5045943;28;20990;-76
2023/03/07 01:16:35;;;;;;;25.53;16.23;;;;;;;;;;5042238;28;20205;-75
2023/03/07 01:19:03;;;;;;;25.13;15.83;;;;;;;;;;5046275;28;20319;-76
2023/03/07 01:21:33;;;;;;;26.43;15.67;;;;;;;;;;5045346;28;20587;-76
2023/03/07 01:24:02;;;;;;;27.77;17.13;;;;;;;;;;5031077;28;20178;-75
2023/03/07 01:26:30;;;;;;;27.23;16.83;;;;;;;;;;5048226;28;20182;-75
2023/03/07 01:28:58;;;;;;;29.73;17.30;;;;;;;;;;5047780;28;20669;-75
2023/03/07 01:31:25;;;;;;;27.27;16.77;;;;;;;;;;5047724;28;20226;-76
2023/03/07 01:33:52;;;;;;;27.00;16.33;;;;;;;;;;5045946;28;20190;-74
2023/03/07 01:36:19;;;;;;;26.90;17.13;;;;;;;;;;5047991;28;20607;-75
2023/03/07 01:38:47;;;;;;;27.40;16.67;;;;;;;;;;5031295;28;20261;-75
2023/03/07 01:41:14;;;;;;;28.13;16.43;;;;;;;;;;5031654;28;20745;-75
2023/03/07 01:43:41;;;;;;;28.60;17.57;;;;;;;;;;5047010;28;20285;-76
2023/03/07 01:46:19;;;;;;;28.63;17.60;;;;;;;;;;5048213;28;20162;-75
2023/03/07 01:48:53;;;;;;;28.60;17.53;;;;;;;;;;5046844;28;20259;-75
2023/03/07 01:51:20;;;;;;;27.07;16.87;;;;;;;;;;5039693;28;20189;-75
2023/03/07 01:53:51;;;;;;;30.73;18.30;;;;;;;;;;5028956;28;20220;-75
2023/03/07 01:56:17;;;;;;;30.93;18.10;;;;;;;;;;5047832;28;20267;-76
2023/03/07 01:58:44;;;;;;;29.77;17.63;;;;;;;;;;5048148;28;20178;-75
2023/03/07 02:01:12;;;;;;;29.13;16.30;;;;;;;;;;5046458;28;20174;-76
2023/03/07 02:03:42;;;;;;;27.10;17.50;;;;;;;;;;5044696;28;20233;-75
2023/03/07 02:06:10;;;;;;;31.30;19.23;;;;;;;;;;5042359;28;20220;-76
2023/03/07 02:08:37;;;;;;;26.73;17.23;;;;;;;;;;5028337;28;20274;-76
2023/03/07 02:11:04;;;;;;;27.27;16.63;;;;;;;;;;5045244;28;20335;-74
2023/03/07 02:13:30;;;;;;;30.57;18.30;;;;;;;;;;5043669;28;20673;-75
2023/03/07 02:15:57;;;;;;;27.93;17.13;;;;;;;;;;5045939;28;20185;-74
2023/03/07 02:18:24;;;;;;;26.57;16.93;;;;;;;;;;5029507;28;20264;-75
2023/03/07 02:21:11;;;;;;;25.03;15.23;;;;;;;;;;5046451;28;20595;-75
2023/03/07 02:23:59;;;;;;;25.00;16.33;;;;;;;;;;5043448;28;20259;-76
2023/03/07 02:26:32;;;;;;;28.23;17.17;;;;;;;;;;5041993;28;20276;-75
2023/03/07 02:28:59;;;;;;;27.93;16.03;;;;;;;;;;5045642;28;20200;-75
2023/03/07 02:31:25;;;;;;;24.97;16.23;;;;;;;;;;5029153;28;20186;-76
2023/03/07 02:33:52;;;;;;;24.63;16.43;;;;;;;;;;5044421;28;20288;-74
2023/03/07 02:36:30;;;;;;;23.07;15.37;;;;;;;;;;5046998;28;20236;-76
2023/03/07 02:39:15;;;;;;;26.50;16.53;;;;;;;;;;5046422;28;20550;-75
2023/03/07 02:41:42;;;;;;;26.00;16.23;;;;;;;;;;5026536;28;20304;-75
2023/03/07 02:44:17;;;;;;;26.47;16.77;;;;;;;;;;5045633;28;20614;-75
2023/03/07 02:46:43;;;;;;;23.70;16.03;;;;;;;;;;5046986;28;20188;-75
2023/03/07 02:49:10;;;;;;;26.03;16.00;;;;;;;;;;5045157;28;20209;-75
2023/03/07 02:51:36;;;;;;;23.10;15.47;;;;;;;;;;5047104;28;20719;-75
2023/03/07 02:54:02;;;;;;;22.87;15.43;;;;;;;;;;5047331;28;20189;-75
2023/03/07 02:56:28;;;;;;;26.70;15.87;;;;;;;;;;5047010;28;20241;-74
2023/03/07 02:58:54;;;;;;;23.83;15.43;;;;;;;;;;5030823;28;20587;-74
2023/03/07 03:01:21;;;;;;;20.70;14.07;;;;;;;;;;5048164;28;20170;-75
2023/03/07 03:03:47;;;;;;;21.40;14.57;;;;;;;;;;5048122;28;20288;-74
2023/03/07 03:06:14;;;;;;;22.37;14.60;;;;;;;;;;5032316;28;20519;-75
2023/03/07 03:08:40;;;;;;;20.07;14.47;;;;;;;;;;5051588;28;20186;-74
2023/03/07 03:11:06;;;;;;;22.30;15.00;;;;;;;;;;5050866;28;20507;-75
2023/03/07 03:13:34;;;;;;;21.60;14.70;;;;;;;;;;5030286;28;20707;-74
2023/03/07 03:16:01;;;;;;;25.03;15.53;;;;;;;;;;5033272;28;20649;-75
2023/03/07 03:18:27;;;;;;;24.50;15.37;;;;;;;;;;5036650;28;20598;-75
2023/03/07 03:20:53;;;;;;;23.33;15.27;;;;;;;;;;5034396;28;20189;-74
2023/03/07 03:23:19;;;;;;;24.17;15.47;;;;;;;;;;5033058;28;20204;-75
2023/03/07 03:25:56;;;;;;;24.00;15.00;;;;;;;;;;5049077;28;20269;-75
2023/03/07 03:28:22;;;;;;;29.23;16.60;;;;;;;;;;5052247;28;20268;-74
2023/03/07 03:30:57;;;;;;;26.43;16.27;;;;;;;;;;5033336;28;20189;-75
2023/03/07 03:33:23;;;;;;;22.83;15.33;;;;;;;;;;5040917;28;20209;-74
2023/03/07 03:35:49;;;;;;;22.63;15.57;;;;;;;;;;5048837;28;20193;-75
2023/03/07 03:38:16;;;;;;;23.33;15.00;;;;;;;;;;5047851;28;20217;-75
2023/03/07 03:40:42;;;;;;;24.63;15.57;;;;;;;;;;5030230;28;20578;-75
2023/03/07 03:43:08;;;;;;;25.70;15.70;;;;;;;;;;5043672;28;20292;-75
2023/03/07 03:45:35;;;;;;;25.97;16.83;;;;;;;;;;5048675;28;20488;-76
2023/03/07 03:48:01;;;;;;;24.80;16.40;;;;;;;;;;5044782;28;20229;-75
2023/03/07 03:50:27;;;;;;;23.07;14.97;;;;;;;;;;5031775;28;20692;-75
2023/03/07 03:52:53;;;;;;;25.77;16.10;;;;;;;;;;5045335;28;20213;-75
2023/03/07 03:55:19;;;;;;;24.60;16.30;;;;;;;;;;5048612;28;20645;-75
2023/03/07 03:57:46;;;;;;;26.30;15.47;;;;;;;;;;5047344;28;20736;-75
2023/03/07 04:00:14;;;;;;;28.43;16.23;;;;;;;;;;5050496;28;20657;-74
2023/03/07 04:02:40;;;;;;;25.70;16.53;;;;;;;;;;5044926;28;20198;-75
2023/03/07 04:05:10;;;;;;;25.23;16.03;;;;;;;;;;5046183;28;20251;-75
2023/03/07 04:07:36;;;;;;;24.73;17.98;;;;;;;;;;5044063;28;20475;-75
2023/03/07 04:10:03;;;;;;;23.13;15.53;;;;;;;;;;5059045;28;20182;-74
2023/03/07 04:12:30;;;;;;;23.60;15.77;;;;;;;;;;5043427;28;20573;-76
2023/03/07 04:14:56;;;;;;;24.20;16.40;;;;;;;;;;5050206;28;20182;-75
2023/03/07 04:17:23;;;;;;;24.87;17.00;;;;;;;;;;5048175;28;20634;-76
2023/03/07 04:19:49;;;;;;;25.17;16.80;;;;;;;;;;5031803;28;20177;-75
2023/03/07 04:22:15;;;;;;;28.23;16.97;;;;;;;;;;5047120;28;20333;-76
2023/03/07 04:24:41;;;;;;;25.53;17.33;;;;;;;;;;5048285;28;20240;-76
2023/03/07 04:27:08;;;;;;;25.90;16.77;;;;;;;;;;5029103;28;20565;-74
2023/03/07 04:29:36;;;;;;;25.97;16.87;;;;;;;;;;5048300;28;20551;-75
2023/03/07 04:32:15;;;;;;;26.93;16.97;;;;;;;;;;5031823;28;20292;-75
2023/03/07 04:34:42;;;;;;;27.00;17.03;;;;;;;;;;5048774;28;20235;-75
2023/03/07 04:37:08;;;;;;;27.13;16.73;;;;;;;;;;5031894;28;20279;-75
2023/03/07 04:39:34;;;;;;;28.10;17.70;;;;;;;;;;5015142;28;20208;-75
2023/03/07 04:42:00;;;;;;;24.03;16.43;;;;;;;;;;5043617;28;20712;-75
2023/03/07 04:44:32;;;;;;;25.33;16.60;;;;;;;;;;5043684;28;20166;-75
2023/03/07 04:46:58;;;;;;;26.80;16.50;;;;;;;;;;5049364;28;20259;-75
2023/03/07 04:49:25;;;;;;;26.83;16.60;;;;;;;;;;5032469;28;20201;-75
2023/03/07 04:51:51;;;;;;;27.37;18.33;;;;;;;;;;5030112;28;20689;-75
2023/03/07 04:54:19;;;;;;;26.07;15.83;;;;;;;;;;5048115;28;20279;-75
2023/03/07 04:56:47;;;;;;;27.67;17.43;;;;;;;;;;5031830;28;20568;-75
2023/03/07 04:59:13;;;;;;;26.37;15.90;;;;;;;;;;5048024;28;20174;-75
2023/03/07 05:01:40;;;;;;;24.03;15.90;;;;;;;;;;5046880;28;20222;-75
2023/03/07 05:04:06;;;;;;;25.50;16.17;;;;;;;;;;5045039;28;20765;-75
2023/03/07 05:06:32;;;;;;;25.30;16.93;;;;;;;;;;5048410;28;20308;-76
2023/03/07 05:08:59;;;;;;;26.93;16.50;;;;;;;;;;5047804;28;20190;-75
2023/03/07 05:11:25;;;;;;;26.80;16.40;;;;;;;;;;5047506;28;20186;-75
2023/03/07 05:13:52;;;;;;;25.23;16.57;;;;;;;;;;5046663;28;20194;-75
2023/03/07 05:16:21;;;;;;;24.33;16.10;;;;;;;;;;5030464;28;20224;-75
2023/03/07 05:18:47;;;;;;;27.20;15.93;;;;;;;;;;5044862;28;20213;-75
2023/03/07 05:21:14;;;;;;;25.10;16.57;;;;;;;;;;5031118;28;20568;-74
2023/03/07 05:23:40;;;;;;;27.50;15.73;;;;;;;;;;5029600;28;20224;-75
2023/03/07 05:26:08;;;;;;;23.43;15.30;;;;;;;;;;5046506;28;20185;-76
2023/03/07 05:28:34;;;;;;;25.53;16.23;;;;;;;;;;5044439;28;20657;-75
2023/03/07 05:31:01;;;;;;;26.37;16.80;;;;;;;;;;5045749;28;20757;-74
2023/03/07 05:33:27;;;;;;;26.20;15.70;;;;;;;;;;5046290;28;20205;-75
2023/03/07 05:35:54;;;;;;;26.73;15.87;;;;;;;;;;5046498;28;20653;-76
2023/03/07 05:38:22;;;;;;;21.77;14.73;;;;;;;;;;5048280;28;20201;-75
2023/03/07 05:40:48;;;;;;;24.73;15.77;;;;;;;;;;5048195;28;20650;-75
2023/03/07 05:43:14;;;;;;;24.77;15.10;;;;;;;;;;5047236;28;20209;-76
2023/03/07 05:45:40;;;;;;;22.30;14.60;;;;;;;;;;5047042;28;20213;-75
2023/03/07 05:48:06;;;;;;;25.88;16.42;;;;;;;;;;5045135;28;20427;-75
2023/03/07 05:50:33;;;;;;;25.07;14.90;;;;;;;;;;5045995;28;20186;-76
2023/03/07 05:52:59;;;;;;;25.63;16.03;;;;;;;;;;5043051;28;20202;-75
2023/03/07 05:55:28;;;;;;;22.60;14.70;;;;;;;;;;5047614;28;20233;-76
2023/03/07 05:57:55;;;;;;;23.07;14.77;;;;;;;;;;5031147;28;20708;-75
2023/03/07 06:00:21;;;;;;;22.90;14.30;;;;;;;;;;5047273;28;20178;-75
2023/03/07 06:02:54;;;;;;;23.67;15.30;;;;;;;;;;5045001;28;20206;-75
2023/03/07 06:05:20;;;;;;;20.90;14.37;;;;;;;;;;5047432;28;20170;-76
2023/03/07 06:07:46;;;;;;;22.77;14.17;;;;;;;;;;5029970;28;20196;-75
2023/03/07 06:10:14;;;;;;;21.27;13.87;;;;;;;;;;5043944;28;20210;-75
2023/03/07 06:12:40;;;;;;;22.17;13.70;;;;;;;;;;5043469;28;20313;-75
2023/03/07 06:15:07;;;;;;;21.87;14.80;;;;;;;;;;5047571;28;20178;-79
2023/03/07 06:17:34;;;;;;;21.53;13.70;;;;;;;;;;5028796;28;20202;-81
2023/03/07 06:20:01;;;;;;;22.47;14.37;;;;;;;;;;5028272;28;20185;-76
2023/03/07 06:22:27;;;;;;;22.63;13.20;;;;;;;;;;5025549;28;20620;-76
2023/03/07 06:24:54;;;;;;;20.57;14.03;;;;;;;;;;5041243;28;20186;-75
2023/03/07 06:27:20;;;;;;;21.67;14.37;;;;;;;;;;5029713;28;20714;-76
2023/03/07 06:29:47;;;;;;;20.07;13.40;;;;;;;;;;5047749;28;20345;-77
2023/03/07 06:32:13;;;;;;;25.17;14.30;;;;;;;;;;5046601;28;20212;-78
2023/03/07 06:34:39;;;;;;;19.70;12.80;;;;;;;;;;5045021;28;20208;-78
2023/03/07 06:37:05;;;;;;;22.83;14.10;;;;;;;;;;5044382;28;20263;-76
2023/03/07 06:39:32;;;;;;;19.57;13.43;;;;;;;;;;5045554;28;20653;-76
2023/03/07 06:42:00;;;;;;;21.57;13.77;;;;;;;;;;5034026;28;20268;-77
2023/03/07 06:44:26;;;;;;;22.53;13.50;;;;;;;;;;5051324;28;20174;-76
2023/03/07 06:46:52;;;;;;;21.80;13.37;;;;;;;;;;5047894;28;20647;-77
2023/03/07 06:49:20;;;;;;;20.17;13.60;;;;;;;;;;5046186;28;20173;-75
2023/03/07 06:51:47;;;;;;;20.23;12.97;;;;;;;;;;5046387;28;20213;-75
2023/03/07 06:54:14;;;;;;;21.50;14.03;;;;;;;;;;5049068;28;20626;-80
2023/03/07 06:56:40;;;;;;;21.17;12.97;;;;;;;;;;5035629;28;20216;-80
2023/03/07 06:59:06;;;;;;;18.53;13.07;;;;;;;;;;5034655;28;20194;-78
2023/03/07 07:01:34;;;;;;;18.00;12.77;;;;;;;;;;5016128;28;20194;-77
2023/03/07 07:04:00;;;;;;;19.52;14.38;;;;;;;;;;5048228;28;20510;-74
2023/03/07 07:06:28;;;;;;;18.47;13.17;;;;;;;;;;5060895;28;20191;-74
2023/03/07 07:08:55;;;;;;;21.57;13.77;;;;;;;;;;5049724;28;20213;-74
2023/03/07 07:11:22;;;;;;;19.63;12.80;;;;;;;;;;5049699;28;20189;-74
2023/03/07 07:13:51;;;;;;;19.17;12.77;;;;;;;;;;5047695;28;20235;-73
2023/03/07 07:16:19;;;;;;;19.63;12.40;;;;;;;;;;5021989;28;20190;-73
2023/03/07 07:18:45;;;;;;;18.70;12.10;;;;;;;;;;5050038;28;20220;-74
2023/03/07 07:21:11;;;;;;;17.10;11.20;;;;;;;;;;5034053;28;20178;-74
2023/03/07 07:23:38;;;;;;;17.97;11.77;;;;;;;;;;5017747;28;20293;-74
2023/03/07 07:26:05;;;;;;;16.90;11.30;;;;;;;;;;5052197;28;20528;-74
2023/03/07 07:28:32;;;;;;;19.17;12.10;;;;;;;;;;5035376;28;20205;-74
2023/03/07 07:30:59;;;;;;;16.37;11.80;;;;;;;;;;5051188;28;20170;-74
2023/03/07 07:33:25;;;;;;;16.97;12.10;;;;;;;;;;5051658;28;20201;-74
2023/03/07 07:35:52;;;;;;;17.97;12.60;;;;;;;;;;5049578;28;20178;-74
2023/03/07 07:38:18;;;;;;;16.90;11.80;;;;;;;;;;5052999;28;20639;-74
2023/03/07 07:40:45;;;;;;;16.77;11.47;;;;;;;;;;5053396;28;20197;-74
2023/03/07 07:43:14;;;;;;;15.73;11.13;;;;;;;;;;5051522;28;20198;-74
2023/03/07 07:45:45;;;;;;;17.20;11.20;;;;;;;;;;5052118;28;20188;-74
2023/03/07 07:48:15;;;;;;;18.33;11.57;;;;;;;;;;5052250;28;20212;-74
2023/03/07 07:50:42;;;;;;;16.07;10.73;;;;;;;;;;5051603;28;20205;-74
2023/03/07 07:53:08;;;;;;;17.70;11.77;;;;;;;;;;5049976;28;20201;-73
2023/03/07 07:55:34;;;;;;;16.93;11.67;;;;;;;;;;5051187;28;20170;-74
2023/03/07 07:58:01;;;;;;;17.80;11.77;;;;;;;;;;5034403;28;20530;-74
2023/03/07 08:00:27;;;;;;;16.30;11.47;;;;;;;;;;5042385;28;20178;-74
2023/03/07 08:02:53;;;;;;;16.90;11.17;;;;;;;;;;5052039;28;20292;-74
2023/03/07 08:05:20;;;;;;;15.03;10.53;;;;;;;;;;5050290;28;20231;-74
2023/03/07 08:07:46;;;;;;;15.90;11.13;;;;;;;;;;5045708;28;20193;-74
2023/03/07 08:10:17;;;;;;;16.73;11.00;;;;;;;;;;5050366;28;20240;-74
2023/03/07 08:12:43;;;;;;;15.47;10.67;;;;;;;;;;5041544;28;20739;-74
2023/03/07 08:15:10;;;;;;;14.60;10.53;;;;;;;;;;5043129;28;20603;-74
2023/03/07 08:17:36;;;;;;;17.20;10.70;;;;;;;;;;5060448;28;20277;-74
2023/03/07 08:20:07;;;;;;;15.87;10.40;;;;;;;;;;5047871;28;20274;-74
2023/03/07 08:22:33;;;;;;;15.43;10.40;;;;;;;;;;5033650;28;20383;-74
2023/03/07 08:24:59;;;;;;;13.03;10.17;;;;;;;;;;5053326;28;20181;-74
2023/03/07 08:27:27;;;;;;;15.03;10.63;;;;;;;;;;5053429;28;20177;-74
2023/03/07 08:29:53;;;;;;;14.40;10.70;;;;;;;;;;5070169;28;20181;-74
2023/03/07 08:32:19;;;;;;;15.87;10.87;;;;;;;;;;5056872;28;20263;-74
2023/03/07 08:34:45;;;;;;;15.10;10.23;;;;;;;;;;5055938;28;20269;-74
2023/03/07 08:37:12;;;;;;;14.90;10.23;;;;;;;;;;5046449;28;20280;-74
2023/03/07 08:39:38;;;;;;;16.23;10.27;;;;;;;;;;5049808;28;20638;-73
2023/03/07 08:42:04;;;;;;;14.43;10.20;;;;;;;;;;5050108;28;20296;-74
2023/03/07 08:44:30;;;;;;;15.17;10.03;;;;;;;;;;5050944;28;20251;-76
2023/03/07 08:46:56;;;;;;;13.80;9.43;;;;;;;;;;5050604;28;20181;-76
2023/03/07 08:49:22;;;;;;;15.73;10.10;;;;;;;;;;5050756;28;20190;-76
2023/03/07 08:51:48;;;;;;;15.83;9.67;;;;;;;;;;5051097;28;20251;-76
2023/03/07 08:54:15;;;;;;;14.77;9.93;;;;;;;;;;5051043;28;20185;-76
2023/03/07 08:56:41;;;;;;;13.13;9.43;;;;;;;;;;5051798;28;20276;-76
2023/03/07 08:59:08;;;;;;;16.70;9.97;;;;;;;;;;5049922;28;20584;-76
2023/03/07 09:01:34;;;;;;;15.23;9.27;;;;;;;;;;5049407;28;22116;-76
2023/03/07 09:04:01;;;;;;;15.90;11.33;;;;;;;;;;5038288;28;20182;-76
2023/03/07 09:06:27;;;;;;;13.23;9.90;;;;;;;;;;5051703;28;20196;-76
2023/03/07 09:08:53;;;;;;;12.77;9.57;;;;;;;;;;5017788;28;20200;-76
2023/03/07 09:11:20;;;;;;;14.30;9.83;;;;;;;;;;5042945;28;20201;-76
2023/03/07 09:13:47;;;;;;;17.50;10.90;;;;;;;;;;5049807;28;20609;-76
2023/03/07 09:16:13;;;;;;;14.87;10.27;;;;;;;;;;5051115;28;20182;-76
2023/03/07 09:18:39;;;;;;;14.23;9.97;;;;;;;;;;5050490;28;20170;-76
2023/03/07 09:21:05;;;;;;;14.50;9.73;;;;;;;;;;5050186;28;20186;-76
2023/03/07 09:23:31;;;;;;;17.30;9.60;;;;;;;;;;5050773;28;20273;-76
2023/03/07 09:25:59;;;;;;;13.40;10.03;;;;;;;;;;5050179;28;20249;-76
2023/03/07 09:28:25;;;;;;;12.40;9.40;;;;;;;;;;5049902;28;20665;-76
2023/03/07 09:30:51;;;;;;;12.30;8.30;;;;;;;;;;5050092;28;20186;-76
2023/03/07 09:33:17;;;;;;;14.77;9.70;;;;;;;;;;5038237;28;20297;-76
2023/03/07 09:35:43;;;;;;;14.03;9.60;;;;;;;;;;5030683;28;20179;-76
2023/03/07 09:38:09;;;;;;;11.93;8.80;;;;;;;;;;5030985;28;20289;-76
2023/03/07 09:40:36;;;;;;;13.93;9.83;;;;;;;;;;5031959;28;20183;-76
2023/03/07 09:43:18;;;;;;;12.50;9.13;;;;;;;;;;5029517;28;20618;-76
2023/03/07 09:45:57;;;;;;;13.53;9.30;;;;;;;;;;5046906;28;20199;-76
2023/03/07 09:48:35;;;;;;;13.90;9.70;;;;;;;;;;5048668;28;20178;-76
2023/03/07 09:51:17;;;;;;;13.03;8.80;;;;;;;;;;5033253;28;20217;-76
2023/03/07 09:53:54;;;;;;;11.80;9.07;;;;;;;;;;5030742;28;20297;-76
2023/03/07 09:56:24;;;;;;;12.70;9.10;;;;;;;;;;5041674;28;20255;-76
2023/03/07 09:59:01;;;;;;;12.20;8.83;;;;;;;;;;5050290;28;20182;-76
2023/03/07 10:01:29;;;;;;;12.27;9.03;;;;;;;;;;5049256;28;20181;-76
2023/03/07 10:04:06;;;;;;;14.53;8.80;;;;;;;;;;5048856;28;20561;-76
2023/03/07 10:06:39;;;;;;;11.70;8.77;;;;;;;;;;5050176;28;20193;-76
2023/03/07 10:09:10;;;;;;;11.50;8.27;;;;;;;;;;5031693;28;20251;-76
2023/03/07 10:11:54;;;;;;;12.73;8.70;;;;;;;;;;5043650;28;20178;-76
2023/03/07 10:14:20;;;;;;;11.10;7.90;;;;;;;;;;5049043;28;20260;-76
2023/03/07 10:16:50;;;;;;;11.27;7.90;;;;;;;;;;5037697;28;20217;-76
2023/03/07 10:19:34;;;;;;;12.63;8.20;;;;;;;;;;5047238;28;20181;-76
2023/03/07 10:22:01;;;;;;;12.87;8.70;;;;;;;;;;5054128;28;20213;-76
2023/03/07 10:24:33;;;;;;;10.97;8.07;;;;;;;;;;5056055;28;20580;-76
2023/03/07 10:27:03;;;;;;;12.23;8.63;;;;;;;;;;5053866;28;20202;-76
2023/03/07 10:29:36;;;;;;;11.27;8.07;;;;;;;;;;5055138;28;20184;-76
2023/03/07 10:32:05;;;;;;;12.37;7.90;;;;;;;;;;5054602;28;20205;-76
2023/03/07 10:34:32;;;;;;;11.90;7.97;;;;;;;;;;5039096;28;20182;-76
2023/03/07 10:37:03;;;;;;;11.97;7.93;;;;;;;;;;5056176;28;20228;-76
2023/03/07 10:39:35;;;;;;;11.07;7.80;;;;;;;;;;5051411;28;20202;-76
2023/03/07 10:42:01;;;;;;;11.57;8.23;;;;;;;;;;5035319;28;20190;-76
2023/03/07 10:44:30;;;;;;;12.50;8.43;;;;;;;;;;5037474;28;20192;-76
2023/03/07 10:46:58;;;;;;;11.23;8.17;;;;;;;;;;5055065;28;20182;-76
2023/03/07 10:49:29;;;;;;;14.20;8.13;;;;;;;;;;5056939;28;20185;-76
2023/03/07 10:51:59;;;;;;;12.03;8.10;;;;;;;;;;5052124;28;20222;-76
2023/03/07 10:54:33;;;;;;;9.73;7.70;;;;;;;;;;5019367;28;20194;-76
2023/03/07 10:57:02;;;;;;;10.00;7.50;;;;;;;;;;5054510;28;20236;-75
2023/03/07 10:59:28;;;;;;;12.03;8.17;;;;;;;;;;5055116;28;20649;-76
2023/03/07 11:01:56;;;;;;;9.83;7.37;;;;;;;;;;5050163;28;20207;-76
2023/03/07 11:04:23;;;;;;;10.20;7.43;;;;;;;;;;5048557;28;20544;-76
2023/03/07 11:06:53;;;;;;;11.43;7.57;;;;;;;;;;5056287;28;20181;-76
2023/03/07 11:09:30;;;;;;;12.70;7.70;;;;;;;;;;5053691;28;20276;-76
2023/03/07 11:11:59;;;;;;;9.87;6.10;;;;;;;;;;5052942;28;20210;-76
2023/03/07 11:14:27;;;;;;;8.93;6.43;;;;;;;;;;5054766;28;20190;-76
2023/03/07 11:16:54;;;;;;;8.00;6.20;;;;;;;;;;5052506;28;20209;-76
2023/03/07 11:19:30;;;;;;;8.00;6.33;;;;;;;;;;5054678;28;20170;-76
2023/03/07 11:21:57;;;;;;;9.50;6.83;;;;;;;;;;5036561;28;20237;-76
2023/03/07 11:24:28;;;;;;;9.57;6.60;;;;;;;;;;5053577;28;20231;-76
2023/03/07 11:26:55;;;;;;;9.37;6.47;;;;;;;;;;5052784;28;20252;-76
2023/03/07 11:29:21;;;;;;;9.23;6.60;;;;;;;;;;5053053;28;20189;-75
2023/03/07 11:31:50;;;;;;;8.67;6.27;;;;;;;;;;5052208;28;20273;-76
2023/03/07 11:34:34;;;;;;;9.53;6.20;;;;;;;;;;5036403;28;20533;-76
2023/03/07 11:37:19;;;;;;;9.27;7.23;;;;;;;;;;5053617;28;20213;-76
2023/03/07 11:39:53;;;;;;;9.23;7.07;;;;;;;;;;5052195;28;20601;-76
2023/03/07 11:42:21;;;;;;;13.37;7.30;;;;;;;;;;5051509;28;20198;-76
2023/03/07 11:44:59;;;;;;;9.83;6.90;;;;;;;;;;5053071;28;20247;-76
2023/03/07 11:47:35;;;;;;;10.57;7.40;;;;;;;;;;5030285;28;20197;-76
2023/03/07 11:50:10;;;;;;;8.90;6.67;;;;;;;;;;5046959;28;20181;-77
2023/03/07 11:52:44;;;;;;;10.17;7.03;;;;;;;;;;5046457;28;20213;-79
2023/03/07 11:55:10;;;;;;;8.97;6.73;;;;;;;;;;5032216;28;20190;-80
2023/03/07 11:57:46;;;;;;;9.53;6.90;;;;;;;;;;5027955;28;20214;-81
2023/03/07 12:00:33;;;;;;;11.57;7.30;;;;;;;;;;5049885;28;20181;-79
2023/03/07 12:03:18;;;;;;;10.60;6.33;;;;;;;;;;5047582;28;20236;-79
2023/03/07 12:06:03;;;;;;;9.63;6.63;;;;;;;;;;5049100;28;20181;-77
2023/03/07 12:08:37;;;;;;;9.50;7.00;;;;;;;;;;5035686;28;20657;-78
2023/03/07 12:11:03;;;;;;;9.13;6.83;;;;;;;;;;5046211;28;20633;-77
2023/03/07 12:13:32;;;;;;;8.90;6.17;;;;;;;;;;5045069;28;20202;-78
2023/03/07 12:16:10;;;;;;;8.50;6.13;;;;;;;;;;5030344;28;20197;-79
2023/03/07 12:18:45;;;;;;;10.30;6.53;;;;;;;;;;5046732;28;20248;-77
2023/03/07 12:21:38;;;;;;;8.70;5.80;;;;;;;;;;5048627;28;20288;-79
2023/03/07 12:24:13;;;;;;;8.23;6.07;;;;;;;;;;5014062;28;20212;-79
2023/03/07 12:26:46;;;;;;;10.47;7.70;;;;;;;;;;5046274;28;20201;-79
2023/03/07 12:29:31;;;;;;;41.63;28.73;;;;;;;;;;5045434;28;20198;-74
2023/03/07 12:31:59;;;;;;;21.13;16.73;;;;;;;;;;5043362;28;20224;-73
2023/03/07 12:34:25;;;;;;;13.93;9.20;;;;;;;;;;5047175;28;20179;-74
2023/03/07 12:36:53;;;;;;;9.83;7.10;;;;;;;;;;5049761;28;20221;-75
2023/03/07 12:39:40;;;;;;;10.07;6.03;;;;;;;;;;5048587;28;20204;-76
2023/03/07 12:42:26;;;;;;;7.70;6.50;;;;;;;;;;5063856;28;20498;-78
2023/03/07 12:44:58;;;;;;;8.30;6.00;;;;;;;;;;5048824;28;20174;-76
2023/03/07 12:47:29;;;;;;;10.23;6.70;;;;;;;;;;5048613;28;20186;-76
2023/03/07 12:50:10;;;;;;;7.90;5.73;;;;;;;;;;5050005;28;20273;-78
2023/03/07 12:52:41;;;;;;;7.57;5.30;;;;;;;;;;5047705;28;20652;-77
2023/03/07 12:55:17;;;;;;;7.20;5.33;;;;;;;;;;5047693;28;20241;-80
2023/03/07 12:57:46;;;;;;;10.67;6.10;;;;;;;;;;5041480;28;20228;-77
2023/03/07 13:00:14;;;;;;;8.60;6.07;;;;;;;;;;5042667;28;20228;-80
2023/03/07 13:02:44;;;;;;;7.23;5.63;;;;;;;;;;5045527;28;20737;-77
2023/03/07 13:05:18;;;;;;;7.83;5.77;;;;;;;;;;5030621;28;20166;-79
2023/03/07 13:07:45;;;;;;;9.07;5.67;;;;;;;;;;5051618;28;20216;-78
2023/03/07 13:10:14;;;;;;;8.13;5.40;;;;;;;;;;5071990;28;20182;-79
2023/03/07 13:12:40;;;;;;;9.37;6.00;;;;;;;;;;5052286;28;20235;-78
2023/03/07 13:15:19;;;;;;;10.30;5.40;;;;;;;;;;5049454;28;20190;-77
2023/03/07 13:17:45;;;;;;;8.47;5.77;;;;;;;;;;5045084;28;20763;-77
2023/03/07 13:20:17;;;;;;;7.53;5.83;;;;;;;;;;5042995;28;20234;-77
2023/03/07 13:22:44;;;;;;;9.10;5.70;;;;;;;;;;5049940;28;20224;-77
2023/03/07 13:25:36;;;;;;;9.43;5.57;;;;;;;;;;5032814;28;20610;-77
2023/03/07 13:28:03;;;;;;;9.83;5.80;;;;;;;;;;5029081;28;20197;-78
2023/03/07 13:30:33;;;;;;;9.20;5.90;;;;;;;;;;5053700;28;20181;-78
2023/03/07 13:33:05;;;;;;;10.17;5.97;;;;;;;;;;5050704;28;20204;-78
2023/03/07 13:35:34;;;;;;;8.13;6.00;;;;;;;;;;5011211;28;20713;-79
2023/03/07 13:38:19;;;;;;;9.03;6.33;;;;;;;;;;5030476;28;20739;-79
2023/03/07 13:40:45;;;;;;;13.87;6.53;;;;;;;;;;5049444;28;20887;-79
2023/03/07 13:43:18;;;;;;;8.03;6.00;;;;;;;;;;5045191;28;20212;-80
2023/03/07 13:45:44;;;;;;;10.63;6.93;;;;;;;;;;5032381;28;20174;-79
2023/03/07 13:48:11;;;;;;;9.57;6.47;;;;;;;;;;5050666;28;20189;-79
2023/03/07 13:50:38;;;;;;;9.47;6.60;;;;;;;;;;5050164;28;20185;-80
2023/03/07 13:53:11;;;;;;;9.13;6.83;;;;;;;;;;5053682;28;20217;-82
2023/03/07 13:56:09;;;;;;;10.27;6.93;;;;;;;;;;5032591;28;20185;-78
2023/03/07 13:58:38;;;;;;;10.23;7.60;;;;;;;;;;5013055;28;20228;-79
2023/03/07 14:01:12;;;;;;;12.00;7.17;;;;;;;;;;5049590;28;20198;-79
2023/03/07 14:03:40;;;;;;;11.87;6.93;;;;;;;;;;5051154;28;20311;-79
2023/03/07 14:06:32;;;;;;;11.47;6.63;;;;;;;;;;5050705;28;20185;-79
2023/03/07 14:08:59;;;;;;;10.73;6.23;;;;;;;;;;5046598;28;20193;-79
2023/03/07 14:11:48;;;;;;;12.83;6.60;;;;;;;;;;5033075;28;20200;-78
2023/03/07 14:14:20;;;;;;;15.17;8.07;;;;;;;;;;5049180;28;20193;-79
2023/03/07 14:16:57;;;;;;;13.13;6.33;;;;;;;;;;5048362;28;20595;-79
2023/03/07 14:19:40;;;;;;;10.30;6.57;;;;;;;;;;5046125;28;20178;-79
2023/03/07 14:22:18;;;;;;;10.23;7.30;;;;;;;;;;5052945;28;20201;-79
2023/03/07 14:25:11;;;;;;;9.90;7.13;;;;;;;;;;5051819;28;20208;-79
2023/03/07 14:27:57;;;;;;;9.53;6.60;;;;;;;;;;5033731;28;20190;-79
2023/03/07 14:30:25;;;;;;;11.03;6.60;;;;;;;;;;5049076;28;20595;-80
2023/03/07 14:32:51;;;;;;;14.53;6.90;;;;;;;;;;5048990;28;20263;-79
2023/03/07 14:35:37;;;;;;;11.97;7.00;;;;;;;;;;5049756;28;20729;-82